Time;durP1;ratioP1;P1;durP2;ratioP2;P2;SDS_P1;SDS_P2;PMS_P1;PMS_P2;Temp;Humidity;BMP_temperature;BMP_pressure;BME280_temperature;BME280_humidity;BME280_pressure;Samples;Min_cycle;Max_cycle;Signal;HPM_P1;HPM_P2
2022/12/25 00:02:28;;;;;;;1999.90;999.90;;;;;;;9.11;100.00;99379.41;8355413;28;20444;-74
2022/12/25 00:06:29;;;;;;;1999.90;999.90;;;;;;;9.11;100.00;99377.69;8367882;28;20056;-76
2022/12/25 00:10:31;;;;;;;1999.90;999.90;;;;;;;9.11;100.00;99374.22;8371945;28;20115;-76
2022/12/25 00:14:32;;;;;;;1999.90;999.90;;;;;;;9.14;100.00;99362.13;8379425;28;20147;-75
2022/12/25 00:18:34;;;;;;;1999.90;999.90;;;;;;;9.14;100.00;99359.53;8350575;28;20455;-76
2022/12/25 00:22:35;;;;;;;1999.90;999.90;;;;;;;9.17;100.00;99361.31;8379924;28;20123;-76
2022/12/25 00:26:38;;;;;;;1999.90;999.90;;;;;;;9.18;100.00;99365.63;8365077;28;20072;-77
2022/12/25 00:30:39;;;;;;;1999.90;999.90;;;;;;;9.18;100.00;99352.66;8329879;28;20167;-76
2022/12/25 00:34:41;;;;;;;1999.90;999.90;;;;;;;9.19;100.00;99350.06;8782272;22;20083;-75
2022/12/25 00:38:43;;;;;;;1999.90;999.90;;;;;;;9.19;100.00;99341.44;8351245;28;20513;-75
2022/12/25 00:42:44;;;;;;;1999.90;999.90;;;;;;;9.18;100.00;99352.66;8347813;28;20076;-75
2022/12/25 00:46:46;;;;;;;1999.90;999.90;;;;;;;9.18;100.00;99353.53;8368873;28;20128;-78
2022/12/25 00:50:47;;;;;;;1999.90;999.90;;;;;;;9.19;100.00;99344.03;8368382;28;20047;-76
2022/12/25 00:54:48;;;;;;;1999.90;999.90;;;;;;;9.14;100.00;99341.41;8349756;28;20059;-76
2022/12/25 00:58:50;;;;;;;1999.90;999.90;;;;;;;9.11;100.00;99341.41;8337753;28;20043;-77
2022/12/25 01:02:51;;;;;;;1999.90;999.90;;;;;;;9.09;100.00;99344.00;8336049;28;20721;-77
2022/12/25 01:06:53;;;;;;;1999.90;999.90;;;;;;;9.05;100.00;99344.88;8369695;28;20076;-76
2022/12/25 01:10:56;;;;;;;1999.90;999.90;;;;;;;9.07;100.00;99347.47;8350706;28;20045;-78
2022/12/25 01:14:57;;;;;;;1999.90;999.90;;;;;;;9.06;100.00;99363.88;8331789;28;20075;-78
2022/12/25 01:18:59;;;;;;;1999.90;999.90;;;;;;;9.09;100.00;99362.13;8364325;28;20148;-75
2022/12/25 01:23:00;;;;;;;1999.90;999.90;;;;;;;9.03;100.00;99356.09;8346953;28;20333;-76
2022/12/25 01:27:02;;;;;;;1999.90;999.90;;;;;;;9.02;100.00;99354.38;8355416;28;20051;-75
2022/12/25 01:31:07;;;;;;;1999.90;999.90;;;;;;;9.03;100.00;99353.50;8356779;28;20040;-76
2022/12/25 01:35:08;;;;;;;1999.90;999.90;;;;;;;9.06;100.00;99345.75;8333563;28;20080;-76
2022/12/25 01:39:10;;;;;;;1999.90;999.90;;;;;;;9.06;100.00;99356.09;8365540;28;20442;-76
2022/12/25 01:43:26;;;;;;;1999.90;999.90;;;;;;;9.00;100.00;99356.97;8364049;28;20964;-76
2022/12/25 01:47:28;;;;;;;1999.90;999.90;;;;;;;8.97;100.00;99350.91;8367207;28;20074;-75
2022/12/25 01:51:39;;;;;;;1999.90;999.90;;;;;;;8.99;100.00;99334.53;8365049;28;20959;-76
2022/12/25 01:55:42;;;;;;;1999.90;999.90;;;;;;;9.00;100.00;99337.97;8361562;28;20079;-76
2022/12/25 01:59:44;;;;;;;1999.90;999.90;;;;;;;9.03;100.00;99341.44;8362385;28;20056;-76
2022/12/25 02:03:45;;;;;;;1999.90;999.90;;;;;;;9.04;100.00;99330.19;8366350;28;20139;-76
2022/12/25 02:07:48;;;;;;;1999.90;999.90;;;;;;;9.05;100.00;99336.25;8365932;28;20032;-76
2022/12/25 02:11:55;;;;;;;1999.90;999.90;;;;;;;9.06;100.00;99328.47;8361648;28;20032;-75
2022/12/25 02:16:07;;;;;;;1999.90;999.90;;;;;;;9.01;100.00;99325.03;8347349;28;20109;-75
2022/12/25 02:20:46;;;;;;;1999.90;999.90;;;;;;;8.98;100.00;99327.63;8376853;28;20135;-76
2022/12/25 02:25:04;;;;;;;1999.90;999.90;;;;;;;8.98;100.00;99319.00;8371783;28;20051;-76
2022/12/25 02:29:16;;;;;;;1999.90;999.90;;;;;;;8.96;100.00;99324.13;8377686;28;20115;-75
2022/12/25 02:38:02;;;;;;;1999.90;999.90;;;;;;;9.01;100.00;99319.84;8355682;28;20528;-77
2022/12/25 02:42:09;;;;;;;1999.90;999.90;;;;;;;9.01;100.00;99309.50;8377238;28;20067;-78
2022/12/25 03:08:25;;;;;;;1999.90;999.90;;;;;;;9.03;100.00;99305.16;8378372;28;20040;-76
2022/12/25 03:12:52;;;;;;;1999.90;999.90;;;;;;;9.06;100.00;99294.81;8378738;28;20044;-76
2022/12/25 03:16:56;;;;;;;1999.90;999.90;;;;;;;9.07;100.00;99299.13;8378315;28;20465;-76
2022/12/25 03:39:36;;;;;;;1999.90;999.90;;;;;;;9.08;100.00;99272.34;8385038;28;20474;-77
2022/12/25 04:36:11;;;;;;;1999.90;999.90;;;;;;;8.97;100.00;99211.91;8366413;28;20487;-76
2022/12/25 04:40:12;;;;;;;1999.90;999.90;;;;;;;8.97;100.00;99211.06;8371705;28;20060;-76
2022/12/25 04:44:14;;;;;;;1999.90;999.90;;;;;;;8.94;100.00;99217.09;8364415;28;20070;-76
2022/12/25 04:48:15;;;;;;;1999.90;999.90;;;;;;;8.96;100.00;99220.56;8364626;28;20055;-76
2022/12/25 04:52:17;;;;;;;1999.90;999.90;;;;;;;8.94;100.00;99224.00;8352068;28;20047;-76
2022/12/25 04:56:19;;;;;;;1999.90;999.90;;;;;;;8.94;100.00;99201.56;8366712;28;20040;-79
2022/12/25 05:00:21;;;;;;;1999.90;999.90;;;;;;;8.97;100.00;99214.50;8370027;28;20123;-76
2022/12/25 05:04:22;;;;;;;1999.90;999.90;;;;;;;8.97;100.00;99206.75;8369158;28;21357;-77
2022/12/25 05:08:24;;;;;;;1999.90;999.90;;;;;;;8.96;100.00;99209.34;8371576;28;20039;-75
2022/12/25 05:12:25;;;;;;;1999.90;999.90;;;;;;;8.93;100.00;99201.56;8364864;28;20052;-76
2022/12/25 05:16:26;;;;;;;1999.90;999.90;;;;;;;8.92;100.00;99205.03;8375645;28;20151;-76
2022/12/25 05:20:28;;;;;;;1999.90;999.90;;;;;;;8.85;100.00;99205.91;8377223;28;20101;-76
2022/12/25 05:24:36;;;;;;;1999.90;999.90;;;;;;;8.89;100.00;99198.13;8372848;28;20132;-76
2022/12/25 05:28:37;;;;;;;1999.90;999.90;;;;;;;8.85;100.00;99190.38;8369765;28;20592;-76
2022/12/25 05:32:39;;;;;;;1999.90;999.90;;;;;;;8.74;100.00;99188.66;8368392;28;20106;-76
2022/12/25 05:36:40;;;;;;;1999.90;999.90;;;;;;;8.71;100.00;99183.47;8365537;28;20067;-76
2022/12/25 05:40:42;;;;;;;1999.90;999.90;;;;;;;8.70;100.00;99178.31;8372680;28;20051;-76
2022/12/25 05:44:44;;;;;;;1999.90;999.90;;;;;;;8.64;100.00;99176.59;8373142;28;20060;-76
2022/12/25 05:48:45;;;;;;;1999.90;999.90;;;;;;;8.67;100.00;99173.13;8354855;28;20066;-76
2022/12/25 05:52:46;;;;;;;1999.90;999.90;;;;;;;8.64;100.00;99176.59;8359035;28;20052;-76
2022/12/25 05:56:48;;;;;;;1999.90;999.90;;;;;;;8.64;100.00;99161.06;8366652;28;20090;-76
2022/12/25 06:00:49;;;;;;;1999.90;999.90;;;;;;;8.62;100.00;99169.69;8372683;28;20136;-76
2022/12/25 06:04:50;;;;;;;1999.90;999.90;;;;;;;8.59;100.00;99167.94;8365564;28;20131;-75
2022/12/25 06:08:53;;;;;;;1999.90;999.90;;;;;;;8.56;100.00;99169.66;8341462;28;20451;-76
2022/12/25 06:12:56;;;;;;;1999.90;999.90;;;;;;;8.51;100.00;99174.84;8382607;28;20049;-75
2022/12/25 06:16:57;;;;;;;1999.90;999.90;;;;;;;8.51;100.00;99174.84;8377413;28;20044;-76
2022/12/25 06:20:59;;;;;;;1999.90;999.90;;;;;;;8.51;100.00;99161.06;8364689;28;20041;-76
2022/12/25 06:25:00;;;;;;;1999.90;999.90;;;;;;;8.55;100.00;99157.59;8374818;28;21884;-77
2022/12/25 06:29:02;;;;;;;1999.90;999.90;;;;;;;8.56;100.00;99154.13;8365450;28;20044;-76
2022/12/25 06:33:04;;;;;;;1999.90;999.90;;;;;;;8.57;100.00;99148.97;8371266;28;20041;-77
2022/12/25 06:37:05;;;;;;;1999.90;999.90;;;;;;;8.51;100.00;99156.75;8378153;28;20079;-76
2022/12/25 06:41:09;;;;;;;1999.90;999.90;;;;;;;8.43;100.00;99138.59;8382712;28;20062;-76
2022/12/25 06:45:11;;;;;;;1999.90;999.90;;;;;;;8.44;100.00;99117.06;8379685;28;20756;-76
2022/12/25 06:49:13;;;;;;;1999.90;999.90;;;;;;;8.44;100.00;99124.84;8381752;28;20048;-76
2022/12/25 06:53:14;;;;;;;1999.90;999.90;;;;;;;8.36;100.00;99136.91;8388267;28;20055;-75
2022/12/25 06:57:15;;;;;;;1999.90;999.90;;;;;;;8.31;100.00;99151.53;8385943;28;20053;-76
2022/12/25 07:01:20;;;;;;;1999.90;999.90;;;;;;;8.33;100.00;99146.34;8375849;28;21429;-76
2022/12/25 07:05:22;;;;;;;1999.90;999.90;;;;;;;8.36;100.00;99138.63;8377269;28;20052;-76
2022/12/25 07:09:23;;;;;;;1999.90;999.90;;;;;;;8.35;100.00;99142.06;8374601;28;20472;-76
2022/12/25 07:13:25;;;;;;;1999.90;999.90;;;;;;;8.36;100.00;99149.84;8370008;28;20052;-76
2022/12/25 07:17:26;;;;;;;1999.90;999.90;;;;;;;8.39;100.00;99154.13;8377887;28;20033;-76
2022/12/25 07:21:28;;;;;;;1999.90;999.90;;;;;;;8.40;100.00;99141.19;8371257;28;20037;-76
2022/12/25 07:25:29;;;;;;;1999.90;999.90;;;;;;;8.44;100.00;99140.38;8377763;28;20044;-77
2022/12/25 07:29:37;;;;;;;1999.90;999.90;;;;;;;8.38;100.00;99142.94;8373591;28;20041;-76
2022/12/25 07:33:40;;;;;;;1999.90;999.90;;;;;;;8.36;100.00;99133.44;8371845;28;20067;-76
2022/12/25 07:37:41;;;;;;;1999.90;999.90;;;;;;;8.38;100.00;99132.56;8372462;28;20135;-76
2022/12/25 07:41:43;;;;;;;1999.90;999.90;;;;;;;8.43;100.00;99112.72;8376871;28;20123;-77
2022/12/25 07:45:44;;;;;;;1999.90;999.90;;;;;;;8.43;100.00;99110.16;8392273;28;20037;-78
2022/12/25 07:49:46;;;;;;;1999.90;999.90;;;;;;;8.39;100.00;99131.72;8378460;28;20047;-78
2022/12/25 07:53:48;;;;;;;1999.90;999.90;;;;;;;8.39;100.00;99142.06;8386076;28;20686;-78
2022/12/25 07:57:49;;;;;;;1999.90;999.90;;;;;;;8.41;100.00;99131.72;8370295;28;20047;-78
2022/12/25 08:01:50;;;;;;;1999.90;999.90;;;;;;;8.44;100.00;99118.81;8379408;28;20079;-77
2022/12/25 08:05:52;;;;;;;1999.90;999.90;;;;;;;8.46;100.00;99135.19;8381901;28;20155;-78
2022/12/25 08:09:54;;;;;;;1999.90;999.90;;;;;;;8.46;100.00;99153.28;8358489;28;20032;-78
2022/12/25 08:13:56;;;;;;;1999.90;999.90;;;;;;;8.48;100.00;99164.50;8367709;28;20045;-78
2022/12/25 08:17:57;;;;;;;1999.90;999.90;;;;;;;8.50;100.00;99170.53;8366072;28;20044;-78
2022/12/25 08:21:59;;;;;;;1999.90;999.90;;;;;;;8.51;100.00;99169.69;8377197;28;20043;-78
2022/12/25 08:26:01;;;;;;;1999.90;999.90;;;;;;;8.60;100.00;99168.81;8373296;28;20044;-78
2022/12/25 08:30:06;;;;;;;1999.90;999.90;;;;;;;8.67;100.00;99168.81;8373814;28;20033;-77
2022/12/25 08:34:09;;;;;;;1999.90;999.90;;;;;;;8.76;100.00;99166.19;8371454;28;20049;-78
2022/12/25 08:38:11;;;;;;;1999.90;999.90;;;;;;;8.89;100.00;99163.63;8311676;28;20143;-78
2022/12/25 08:42:14;;;;;;;1999.90;999.90;;;;;;;8.97;100.00;99161.84;8342280;28;20046;-78
2022/12/25 08:46:15;;;;;;;1999.90;999.90;;;;;;;9.05;100.00;99158.41;8327677;28;20128;-79
2022/12/25 08:50:17;;;;;;;1999.90;999.90;;;;;;;9.11;100.00;99167.88;8313896;28;20132;-79
2022/12/25 08:54:18;;;;;;;1999.90;999.90;;;;;;;9.17;100.00;99162.72;8326156;28;20040;-79
2022/12/25 08:58:19;;;;;;;1999.90;999.90;;;;;;;9.25;100.00;99168.72;8325019;28;20120;-78
2022/12/25 09:02:21;;;;;;;1999.90;999.90;;;;;;;9.31;100.00;99158.31;8327822;28;20382;-78
2022/12/25 09:06:22;;;;;;;1999.90;999.90;;;;;;;9.45;100.00;99154.84;8313843;28;20370;-78
2022/12/25 09:10:24;;;;;;;1999.90;999.90;;;;;;;9.59;100.00;99155.66;8328543;28;20041;-80
2022/12/25 09:14:26;;;;;;;1999.90;999.90;;;;;;;9.82;100.00;99135.66;8327739;28;20373;-79
2022/12/25 09:18:28;;;;;;;1999.90;999.90;;;;;;;10.01;100.00;99123.44;8319136;28;20041;-83
2022/12/25 09:22:29;;;;;;;1999.90;999.90;;;;;;;10.18;100.00;99128.50;8326341;28;20147;-79
2022/12/25 09:26:31;;;;;;;1999.90;999.90;;;;;;;10.37;100.00;99150.88;8310567;28;20045;-78
2022/12/25 09:30:32;;;;;;;1999.90;999.90;;;;;;;10.66;100.00;99150.66;8338544;28;20309;-78
2022/12/25 09:34:34;;;;;;;1999.90;999.90;;;;;;;11.05;100.00;99154.63;8345700;28;20056;-78
2022/12/25 09:38:35;;;;;;;1999.90;999.90;;;;;;;11.13;100.00;99165.81;8347654;28;20361;-79
2022/12/25 09:42:37;;;;;;;1999.90;999.90;;;;;;;11.10;100.00;99154.56;8325041;28;20049;-79
2022/12/25 09:46:52;;;;;;;1999.90;999.90;;;;;;;11.03;99.91;99173.69;8357046;28;20068;-79
2022/12/25 09:51:01;;;;;;;1999.90;999.90;;;;;;;10.98;99.98;99158.16;8332337;28;20172;-79
2022/12/25 09:55:18;;;;;;;1999.90;999.90;;;;;;;10.96;99.47;99162.53;8348188;28;20067;-78
2022/12/25 09:59:26;;;;;;;1999.90;999.90;;;;;;;10.98;99.60;99158.16;8322847;28;20045;-78
2022/12/25 10:03:46;;;;;;;1999.90;999.90;;;;;;;10.99;100.00;99138.25;8332509;28;20049;-78
2022/12/25 10:08:01;;;;;;;1999.90;999.90;;;;;;;11.01;99.77;99141.69;8330483;28;20040;-77
2022/12/25 10:12:22;;;;;;;1999.90;999.90;;;;;;;11.07;99.81;99132.06;8347228;28;20056;-77
2022/12/25 10:16:54;;;;;;;1999.90;999.90;;;;;;;11.11;99.39;99132.91;8338133;28;20059;-78
2022/12/25 10:20:59;;;;;;;1999.90;999.90;;;;;;;11.18;98.95;99124.16;8338420;28;20059;-78
2022/12/25 10:25:01;;;;;;;1999.90;999.90;;;;;;;11.22;99.00;99114.59;8321243;28;20156;-79
2022/12/25 10:29:12;;;;;;;1999.90;999.90;;;;;;;11.25;98.51;99102.41;8334139;28;20055;-78
2022/12/25 10:33:14;;;;;;;1999.90;999.90;;;;;;;11.30;98.20;99102.34;8324619;28;20138;-77
2022/12/25 10:37:17;;;;;;;1999.90;999.90;;;;;;;11.32;98.28;99080.69;8362492;28;20415;-78
2022/12/25 10:41:52;;;;;;;1999.90;999.90;;;;;;;11.40;97.97;99081.44;8368731;28;20051;-78
2022/12/25 10:45:53;;;;;;;1999.90;999.90;;;;;;;11.58;97.82;99082.09;8363713;28;20047;-78
2022/12/25 10:49:56;;;;;;;1999.90;999.90;;;;;;;11.67;97.25;99082.84;8348509;28;20445;-78
2022/12/25 10:53:58;;;;;;;1999.90;999.90;;;;;;;11.68;95.78;99079.34;8352533;28;20147;-79
2022/12/25 10:58:00;;;;;;;1999.90;999.90;;;;;;;11.67;94.90;99077.63;8378284;28;20666;-78
2022/12/25 11:02:27;;;;;;;1999.90;999.90;;;;;;;11.66;95.21;99073.28;8388846;28;20050;-78
2022/12/25 11:06:31;;;;;;;1999.90;999.90;;;;;;;11.67;95.22;99056.84;8375424;28;20072;-78
2022/12/25 11:10:42;;;;;;;1999.90;999.90;;;;;;;11.70;95.11;99053.31;8369781;28;20075;-78
2022/12/25 11:14:53;;;;;;;1999.90;999.90;;;;;;;11.76;94.88;99055.81;8369329;28;20365;-78
2022/12/25 11:18:56;;;;;;;1999.90;999.90;;;;;;;11.85;95.34;99050.53;8373646;28;20045;-78
2022/12/25 11:22:57;;;;;;;1999.90;999.90;;;;;;;12.01;94.85;99041.56;8372350;28;20055;-78
2022/12/25 11:27:03;;;;;;;1999.90;999.90;;;;;;;12.20;94.56;99042.13;8355637;28;20044;-77
2022/12/25 11:31:06;;;;;;;1999.90;999.90;;;;;;;12.29;93.42;99018.56;8379561;28;20064;-77
2022/12/25 11:35:12;;;;;;;1999.90;999.90;;;;;;;12.45;93.32;99033.94;8367156;28;20049;-78
2022/12/25 11:39:22;;;;;;;1999.90;999.90;;;;;;;12.43;91.40;99033.97;8371652;28;20040;-78
2022/12/25 11:43:34;;;;;;;1999.90;999.90;;;;;;;12.59;91.83;99013.72;8376676;28;20067;-78
2022/12/25 11:47:42;;;;;;;1999.90;999.90;;;;;;;12.74;91.91;99009.94;8370275;28;20049;-77
2022/12/25 11:51:48;;;;;;;1999.90;999.90;;;;;;;12.88;91.99;98998.34;8366307;28;20041;-77
2022/12/25 11:55:55;;;;;;;1999.90;999.90;;;;;;;12.99;90.79;99000.75;8370977;28;20154;-78
2022/12/25 12:00:05;;;;;;;1999.90;999.90;;;;;;;13.17;89.40;98999.50;8374124;28;20044;-78
2022/12/25 12:04:17;;;;;;;1999.90;999.90;;;;;;;13.26;86.67;98992.38;8358433;28;20048;-76
2022/12/25 12:08:18;;;;;;;1999.90;999.90;;;;;;;13.34;85.67;98979.19;8370389;28;20079;-76
2022/12/25 12:12:59;;;;;;;1999.90;999.90;;;;;;;13.41;85.26;98975.53;8368326;28;20041;-77
2022/12/25 12:17:12;;;;;;;1999.90;999.90;;;;;;;13.46;85.52;98972.81;8334031;28;20135;-76
2022/12/25 12:21:16;;;;;;;1999.90;999.90;;;;;;;13.41;84.65;98959.88;8369435;28;20434;-76
2022/12/25 12:25:18;;;;;;;1999.90;999.90;;;;;;;13.39;86.39;98966.91;8371398;28;20078;-76
2022/12/25 12:29:29;;;;;;;1999.90;999.90;;;;;;;13.30;86.06;98959.28;8365959;28;20072;-77
2022/12/25 12:33:40;;;;;;;1999.90;999.90;;;;;;;13.32;87.00;98969.69;8375379;28;20492;-77
2022/12/25 12:37:45;;;;;;;1999.90;999.90;;;;;;;13.25;86.13;98966.34;8390221;28;20090;-76
2022/12/25 12:41:48;;;;;;;1999.90;999.90;;;;;;;13.18;85.67;98969.97;8365448;28;20067;-77
2022/12/25 12:46:01;;;;;;;1999.90;999.90;;;;;;;13.12;86.05;98960.53;8372471;28;20040;-77
2022/12/25 12:50:04;;;;;;;1999.90;999.90;;;;;;;13.10;86.59;98958.81;8363104;28;20118;-76
2022/12/25 12:54:19;;;;;;;1999.90;999.90;;;;;;;13.01;86.31;98941.63;8362557;28;20493;-77
2022/12/25 12:58:45;;;;;;;1999.90;999.90;;;;;;;12.91;86.68;98937.50;8371221;28;20072;-77
2022/12/25 13:02:55;;;;;;;1999.90;999.90;;;;;;;12.88;87.53;98948.84;8368106;28;20636;-77
2022/12/25 13:07:18;;;;;;;1999.90;999.90;;;;;;;12.85;87.62;98942.84;8373679;28;20048;-77
2022/12/25 13:11:27;;;;;;;1999.90;999.90;;;;;;;12.81;87.68;98951.63;8368638;28;20047;-77
2022/12/25 13:15:32;;;;;;;1999.90;999.90;;;;;;;12.77;88.42;98942.16;8372286;28;20854;-77
2022/12/25 13:19:35;;;;;;;1999.90;999.90;;;;;;;12.76;88.81;98950.88;8361689;28;20143;-78
2022/12/25 13:23:37;;;;;;;1999.90;999.90;;;;;;;12.77;88.41;98944.78;8377028;28;20127;-78
2022/12/25 13:27:39;;;;;;;1999.90;999.90;;;;;;;12.80;88.63;98931.66;8368597;28;20071;-78
2022/12/25 13:31:40;;;;;;;1999.90;999.90;;;;;;;12.82;88.55;98937.69;8353407;28;20124;-78
2022/12/25 13:35:43;;;;;;;1999.90;999.90;;;;;;;12.87;88.45;98947.13;8372935;28;20075;-77
2022/12/25 13:39:50;;;;;;;1999.90;999.90;;;;;;;12.86;88.40;98936.75;8377288;28;20135;-78
2022/12/25 13:43:57;;;;;;;1999.90;999.90;;;;;;;12.82;88.19;98935.97;8361919;28;20393;-77
2022/12/25 13:48:08;;;;;;;1999.90;999.90;;;;;;;12.77;86.54;98932.59;8359106;28;20040;-78
2022/12/25 13:52:20;;;;;;;1999.90;999.90;;;;;;;12.81;87.69;98939.44;8371064;28;20044;-78
2022/12/25 13:56:21;;;;;;;1999.90;999.90;;;;;;;12.83;86.82;98945.47;8371758;28;20109;-77
2022/12/25 14:00:30;;;;;;;1999.90;999.90;;;;;;;12.86;86.90;98948.03;8355035;28;20048;-78
2022/12/25 14:04:43;;;;;;;1999.90;999.90;;;;;;;12.87;85.81;98964.50;8368964;28;20440;-77
2022/12/25 14:08:46;;;;;;;1999.90;999.90;;;;;;;12.89;86.49;98963.59;8369682;28;20053;-77
2022/12/25 14:12:50;;;;;;;1999.90;999.90;;;;;;;12.83;86.57;98961.13;8374679;28;20082;-77
2022/12/25 14:16:55;;;;;;;1999.90;999.90;;;;;;;12.80;86.58;98963.78;8368337;28;20509;-77
2022/12/25 14:21:11;;;;;;;1999.90;999.90;;;;;;;12.77;86.58;98952.59;8368263;28;20044;-77
2022/12/25 14:25:14;;;;;;;1999.90;999.90;;;;;;;12.78;87.36;98952.56;8376210;28;20208;-78
2022/12/25 14:29:18;;;;;;;1999.90;999.90;;;;;;;12.74;87.18;98945.66;8382885;28;20343;-77
2022/12/25 14:33:28;;;;;;;1999.90;999.90;;;;;;;12.70;87.38;98950.06;8380490;28;20047;-77
2022/12/25 14:37:31;;;;;;;1999.90;999.90;;;;;;;12.67;87.45;98950.16;8344850;28;20059;-77
2022/12/25 14:41:39;;;;;;;1999.90;999.90;;;;;;;12.63;87.55;98952.84;8333070;28;20444;-78
2022/12/25 14:45:41;;;;;;;1999.90;999.90;;;;;;;12.60;87.38;98961.59;8320089;28;20131;-78
2022/12/25 14:49:43;;;;;;;1999.90;999.90;;;;;;;12.60;87.61;98965.94;8315302;28;20053;-78
2022/12/25 14:53:54;;;;;;;1999.90;999.90;;;;;;;12.59;88.05;98982.47;8342492;28;20065;-77
2022/12/25 14:58:00;;;;;;;1999.90;999.90;;;;;;;12.54;87.95;98972.09;8332020;28;20779;-77
2022/12/25 15:02:01;;;;;;;1999.90;999.90;;;;;;;12.54;87.90;98977.31;8318831;28;20124;-78
2022/12/25 15:06:06;;;;;;;1999.90;999.90;;;;;;;12.46;87.89;98962.72;8319831;28;20032;-78
2022/12/25 15:10:12;;;;;;;1999.90;999.90;;;;;;;12.36;87.41;98983.72;8324208;28;20412;-77
2022/12/25 15:14:37;;;;;;;1999.90;999.90;;;;;;;12.32;87.85;98986.41;8324003;28;20049;-78
2022/12/25 15:18:42;;;;;;;1999.90;999.90;;;;;;;12.26;88.47;98997.81;8337599;28;20034;-77
2022/12/25 15:22:43;;;;;;;1999.90;999.90;;;;;;;12.23;87.58;99000.47;8324519;28;20084;-78
2022/12/25 15:27:14;;;;;;;1999.90;999.90;;;;;;;12.19;88.07;98993.56;8321746;28;20493;-77
2022/12/25 15:31:28;;;;;;;1999.90;999.90;;;;;;;12.18;87.95;98970.16;8323384;28;20041;-78
2022/12/25 15:35:32;;;;;;;1999.90;999.90;;;;;;;12.15;87.53;98988.44;8336832;28;20847;-78
2022/12/25 15:39:33;;;;;;;1999.90;999.90;;;;;;;12.06;88.22;98974.72;8368489;28;20603;-77
2022/12/25 15:43:34;;;;;;;1999.90;999.90;;;;;;;11.98;88.18;98970.53;8365283;28;20040;-78
2022/12/25 15:47:41;;;;;;;1999.90;999.90;;;;;;;11.80;88.42;98969.06;8375370;28;20128;-77
2022/12/25 15:51:43;;;;;;;1999.90;999.90;;;;;;;11.65;89.36;98967.53;8371312;28;20045;-78
2022/12/25 15:55:45;;;;;;;1999.90;999.90;;;;;;;11.58;90.13;98972.88;8390961;28;20438;-78
2022/12/25 15:59:46;;;;;;;1999.90;999.90;;;;;;;11.53;90.68;98964.28;8358572;28;20049;-77
2022/12/25 16:03:48;;;;;;;1999.90;999.90;;;;;;;11.49;90.72;98973.88;8390676;28;20071;-82
2022/12/25 16:07:50;;;;;;;1999.90;999.90;;;;;;;11.41;91.12;98981.78;8379146;28;20309;-77
2022/12/25 16:11:52;;;;;;;1999.90;999.90;;;;;;;11.38;91.66;99000.03;8374353;28;20334;-79
2022/12/25 16:15:53;;;;;;;1999.90;999.90;;;;;;;11.31;91.83;99011.41;8374788;28;20588;-77
2022/12/25 16:19:55;;;;;;;1999.90;999.90;;;;;;;11.20;91.73;99005.47;8374355;28;20037;-77
2022/12/25 16:23:56;;;;;;;1999.90;999.90;;;;;;;11.19;92.43;99016.75;8374466;28;20029;-77
2022/12/25 16:27:57;;;;;;;1999.90;999.90;;;;;;;11.18;91.86;99018.50;8371343;28;22432;-78
2022/12/25 16:31:59;;;;;;;1999.90;999.90;;;;;;;11.18;91.56;99018.50;8366879;28;20045;-78
2022/12/25 16:36:00;;;;;;;1999.90;999.90;;;;;;;11.16;91.48;99024.59;8352085;28;20045;-77
2022/12/25 16:40:02;;;;;;;1999.90;999.90;;;;;;;11.13;91.69;99011.59;8326246;28;20045;-78
2022/12/25 16:44:08;;;;;;;1999.90;999.90;;;;;;;11.15;91.79;99028.06;8340874;28;20140;-77
2022/12/25 16:48:12;;;;;;;1999.90;999.90;;;;;;;11.12;92.19;99030.69;8343491;28;20045;-77
2022/12/25 16:52:13;;;;;;;1999.90;999.90;;;;;;;11.12;92.17;99041.06;8338222;28;20112;-78
2022/12/25 16:56:19;;;;;;;1999.90;999.90;;;;;;;11.12;92.50;99041.06;8351183;28;20045;-78
2022/12/25 17:00:20;;;;;;;1999.90;999.90;;;;;;;11.15;92.42;99020.28;8351647;28;20056;-79
2022/12/25 17:04:22;;;;;;;1999.90;999.90;;;;;;;11.15;91.91;99017.69;8340148;28;20124;-78
2022/12/25 17:08:23;;;;;;;1999.90;999.90;;;;;;;11.15;91.95;99036.72;8336927;28;20037;-79
2022/12/25 17:12:25;;;;;;;1999.90;999.90;;;;;;;11.18;91.66;99048.81;8345474;28;20077;-80
2022/12/25 17:16:29;;;;;;;1999.90;999.90;;;;;;;11.15;91.28;99021.13;8334424;28;20041;-78
2022/12/25 17:20:31;;;;;;;1999.90;999.90;;;;;;;11.11;91.22;99018.56;8337356;28;20041;-78
2022/12/25 17:24:35;;;;;;;1999.90;999.90;;;;;;;11.09;91.28;99028.13;8321049;28;20774;-79
2022/12/25 17:28:36;;;;;;;1999.90;999.90;;;;;;;11.07;90.99;99053.25;8349305;28;20123;-79
2022/12/25 17:32:38;;;;;;;1999.90;999.90;;;;;;;11.09;90.66;99051.50;8353832;28;20215;-80
2022/12/25 17:36:40;;;;;;;1999.90;999.90;;;;;;;11.11;90.03;99067.94;8370368;28;20088;-78
2022/12/25 17:40:41;;;;;;;1999.90;999.90;;;;;;;11.05;90.47;99055.88;8372249;28;20124;-77
2022/12/25 17:44:43;;;;;;;1999.90;999.90;;;;;;;11.05;90.05;99057.63;8371095;28;20064;-78
2022/12/25 17:48:45;;;;;;;1999.90;999.90;;;;;;;11.06;90.01;99054.16;8381494;28;20056;-78
2022/12/25 17:52:46;;;;;;;1999.90;999.90;;;;;;;11.04;90.08;99055.91;8376732;28;20115;-78
2022/12/25 17:56:48;;;;;;;1999.90;999.90;;;;;;;11.00;90.19;99051.63;8372027;28;20044;-79
2022/12/25 18:00:49;;;;;;;1999.90;999.90;;;;;;;10.99;90.38;99060.31;8349671;28;20045;-79
2022/12/25 18:04:51;;;;;;;1999.90;999.90;;;;;;;11.03;89.85;99049.00;8374375;28;20416;-80
2022/12/25 18:08:55;;;;;;;1999.90;999.90;;;;;;;10.99;90.13;99040.38;8356339;28;20127;-78
2022/12/25 18:12:56;;;;;;;1999.90;999.90;;;;;;;10.97;90.05;99034.34;8375249;28;20083;-80
2022/12/25 18:16:58;;;;;;;1999.90;999.90;;;;;;;10.98;89.68;99025.69;8377396;28;20048;-79
2022/12/25 18:21:00;;;;;;;1999.90;999.90;;;;;;;10.99;89.87;99035.19;8373171;28;20072;-77
2022/12/25 18:25:02;;;;;;;1999.90;999.90;;;;;;;10.96;89.88;99035.22;8379074;28;20663;-79
2022/12/25 18:29:05;;;;;;;1999.90;999.90;;;;;;;10.98;89.94;99049.06;8370931;28;20083;-78
2022/12/25 18:33:08;;;;;;;1999.90;999.90;;;;;;;11.00;89.51;99046.44;8377190;28;20048;-78
2022/12/25 18:37:10;;;;;;;1999.90;999.90;;;;;;;11.00;89.35;99046.44;8375065;28;20547;-83
2022/12/25 18:41:12;;;;;;;1999.90;999.90;;;;;;;11.02;88.70;99055.94;8374753;28;20083;-78
2022/12/25 18:45:14;;;;;;;1999.90;999.90;;;;;;;11.02;88.94;99040.34;8376121;28;20052;-81
2022/12/25 18:49:15;;;;;;;1999.90;999.90;;;;;;;11.01;88.74;99046.41;8374106;28;20050;-77
2022/12/25 18:53:17;;;;;;;1999.90;999.90;;;;;;;10.99;88.66;99044.72;8370473;28;20409;-77
2022/12/25 18:57:18;;;;;;;1999.90;999.90;;;;;;;10.99;88.49;99034.31;8371337;28;20139;-78
2022/12/25 19:01:22;;;;;;;1999.90;999.90;;;;;;;11.01;88.16;99029.97;8374741;28;20036;-79
2022/12/25 19:05:24;;;;;;;1999.90;999.90;;;;;;;10.98;88.37;99024.81;8342962;28;20066;-77
2022/12/25 19:09:26;;;;;;;1999.90;999.90;;;;;;;11.02;87.71;99029.94;8380264;28;20147;-77
2022/12/25 19:13:27;;;;;;;1999.90;999.90;;;;;;;11.00;87.90;99025.66;8369919;28;20150;-80
2022/12/25 19:17:29;;;;;;;1999.90;999.90;;;;;;;10.98;88.01;99033.47;8382941;28;20049;-78
2022/12/25 19:21:32;;;;;;;1999.90;999.90;;;;;;;10.97;87.59;99034.34;8370233;28;20051;-78
2022/12/25 19:25:34;;;;;;;1999.90;999.90;;;;;;;10.97;87.96;99046.47;8371156;28;20152;-79
2022/12/25 19:29:35;;;;;;;1999.90;999.90;;;;;;;10.96;87.62;99034.38;8372693;28;20070;-79
2022/12/25 19:33:39;;;;;;;1999.90;999.90;;;;;;;10.96;87.75;99032.63;8375041;28;20083;-80
2022/12/25 19:37:40;;;;;;;1999.90;999.90;;;;;;;10.96;87.69;99035.22;8368234;28;20056;-80
2022/12/25 19:41:43;;;;;;;1999.90;999.90;;;;;;;10.95;87.36;99030.91;8375515;28;20150;-78
2022/12/25 19:45:44;;;;;;;;;;;;;;;10.98;87.40;99027.41;8369577;28;20566;-82